Time;durP1;ratioP1;P1;durP2;ratioP2;P2;SDS_P1;SDS_P2;PMS_P1;PMS_P2;Temp;Humidity;BMP_temperature;BMP_pressure;BME280_temperature;BME280_humidity;BME280_pressure;Samples;Min_cycle;Max_cycle;Signal;HPM_P1;HPM_P2
2021/04/30 00:01:00;;;;;;;14.43;13.13;;;;;;;;;;5117198;27;20222;-62
2021/04/30 00:03:25;;;;;;;16.73;15.17;;;;;;;;;;5117687;28;20311;-61
2021/04/30 00:05:50;;;;;;;15.07;13.57;;;;;;;;;;5117015;28;20268;-62
2021/04/30 00:08:16;;;;;;;15.30;13.70;;;;;;;;;;5117321;27;20712;-63
2021/04/30 00:10:41;;;;;;;15.23;13.83;;;;;;;;;;5117735;27;20214;-62
2021/04/30 00:13:07;;;;;;;13.60;12.23;;;;;;;;;;5118093;28;20555;-62
2021/04/30 00:15:33;;;;;;;14.37;12.97;;;;;;;;;;5117526;28;20224;-62
2021/04/30 00:18:03;;;;;;;11.70;10.67;;;;;;;;;;5117171;28;20757;-63
2021/04/30 00:20:29;;;;;;;12.40;11.20;;;;;;;;;;5116727;28;20271;-64
2021/04/30 00:22:54;;;;;;;13.47;12.10;;;;;;;;;;5116809;28;20609;-62
2021/04/30 00:25:19;;;;;;;12.83;11.53;;;;;;;;;;5117790;28;20207;-62
2021/04/30 00:27:45;;;;;;;12.23;11.03;;;;;;;;;;5116591;28;20230;-63
2021/04/30 00:30:13;;;;;;;12.40;10.67;;;;;;;;;;5117359;28;20624;-63
2021/04/30 00:32:38;;;;;;;13.07;11.87;;;;;;;;;;5116833;28;20222;-63
2021/04/30 00:35:03;;;;;;;12.23;10.87;;;;;;;;;;5116023;27;20441;-62
2021/04/30 00:37:29;;;;;;;15.03;11.90;;;;;;;;;;5116696;28;20246;-63
2021/04/30 00:39:54;;;;;;;11.13;10.13;;;;;;;;;;5115862;28;20245;-62
2021/04/30 00:42:19;;;;;;;13.87;12.60;;;;;;;;;;5116913;28;20248;-63
2021/04/30 00:44:45;;;;;;;12.83;11.63;;;;;;;;;;5116486;28;20242;-62
2021/04/30 00:47:35;;;;;;;12.50;11.40;;;;;;;;;;5116434;28;20216;-62
2021/04/30 00:50:03;;;;;;;13.37;12.10;;;;;;;;;;5115711;28;20219;-63
2021/04/30 00:52:28;;;;;;;12.70;11.47;;;;;;;;;;5115939;28;20479;-63
2021/04/30 00:54:53;;;;;;;14.07;12.67;;;;;;;;;;5115693;28;20465;-63
2021/04/30 00:57:18;;;;;;;13.87;12.53;;;;;;;;;;5116121;28;20242;-63
2021/04/30 00:59:44;;;;;;;12.57;11.47;;;;;;;;;;5115806;27;20213;-61
2021/04/30 01:02:09;;;;;;;13.80;12.40;;;;;;;;;;5115076;28;20211;-63
2021/04/30 01:04:34;;;;;;;14.83;13.33;;;;;;;;;;5115823;28;20223;-63
2021/04/30 01:07:00;;;;;;;14.00;12.83;;;;;;;;;;5115564;28;20298;-62
2021/04/30 01:09:26;;;;;;;13.77;12.43;;;;;;;;;;5116046;28;20214;-63
2021/04/30 01:11:51;;;;;;;12.80;11.53;;;;;;;;;;5115212;27;20779;-63
2021/04/30 01:14:17;;;;;;;13.50;12.30;;;;;;;;;;5114755;28;20226;-63
2021/04/30 01:16:42;;;;;;;13.40;12.10;;;;;;;;;;5115553;28;20231;-62
2021/04/30 01:19:07;;;;;;;13.73;12.30;;;;;;;;;;5115561;28;20230;-63
2021/04/30 01:21:32;;;;;;;12.67;11.47;;;;;;;;;;5116192;28;20254;-63
2021/04/30 01:23:58;;;;;;;13.60;11.90;;;;;;;;;;5115418;28;20223;-63
2021/04/30 01:26:24;;;;;;;13.40;12.10;;;;;;;;;;5115757;28;20222;-63
2021/04/30 01:28:49;;;;;;;13.43;12.33;;;;;;;;;;5115256;28;20674;-62
2021/04/30 01:31:15;;;;;;;14.83;13.37;;;;;;;;;;5115901;28;20260;-62
2021/04/30 01:33:40;;;;;;;14.60;13.30;;;;;;;;;;5116014;28;20211;-62
2021/04/30 01:36:07;;;;;;;12.97;11.77;;;;;;;;;;5115173;27;20225;-63
2021/04/30 01:38:32;;;;;;;12.70;11.50;;;;;;;;;;5114664;28;20671;-63
2021/04/30 01:40:57;;;;;;;13.33;12.03;;;;;;;;;;5115001;28;20439;-62
2021/04/30 01:43:25;;;;;;;11.83;10.23;;;;;;;;;;5115514;28;20368;-62
2021/04/30 01:45:53;;;;;;;12.20;11.03;;;;;;;;;;5114889;28;20279;-63
2021/04/30 01:48:29;;;;;;;12.73;11.53;;;;;;;;;;5115588;28;20457;-63
2021/04/30 01:50:56;;;;;;;10.93;9.93;;;;;;;;;;5115493;28;20522;-61
2021/04/30 01:53:24;;;;;;;12.40;11.20;;;;;;;;;;5116134;28;20452;-62
2021/04/30 01:55:49;;;;;;;11.93;10.73;;;;;;;;;;5115252;28;20556;-61
2021/04/30 01:58:16;;;;;;;12.07;10.87;;;;;;;;;;5115684;28;20476;-63
2021/04/30 02:00:41;;;;;;;12.83;11.63;;;;;;;;;;5115533;28;20216;-62
2021/04/30 02:03:07;;;;;;;12.37;11.20;;;;;;;;;;5114693;28;20521;-63
2021/04/30 02:05:33;;;;;;;12.80;11.53;;;;;;;;;;5115548;28;20213;-62
2021/04/30 02:08:00;;;;;;;13.00;11.80;;;;;;;;;;5114918;28;20241;-63
2021/04/30 02:10:25;;;;;;;15.60;12.83;;;;;;;;;;5115089;28;20757;-64
2021/04/30 02:12:52;;;;;;;13.20;11.80;;;;;;;;;;5115033;28;20518;-63
2021/04/30 02:15:19;;;;;;;14.03;12.47;;;;;;;;;;5115200;28;20621;-63
2021/04/30 02:17:44;;;;;;;13.80;12.47;;;;;;;;;;5115590;28;20423;-62
2021/04/30 02:20:10;;;;;;;14.30;12.90;;;;;;;;;;5114288;28;20461;-62
2021/04/30 02:22:36;;;;;;;13.73;12.40;;;;;;;;;;5115751;28;20666;-63
2021/04/30 02:25:03;;;;;;;15.07;13.53;;;;;;;;;;5114153;28;20439;-63
2021/04/30 02:27:28;;;;;;;13.80;12.50;;;;;;;;;;5115422;28;20457;-63
2021/04/30 02:29:54;;;;;;;15.47;13.80;;;;;;;;;;5114874;28;20461;-63
2021/04/30 02:32:20;;;;;;;15.07;13.67;;;;;;;;;;5115473;28;20250;-63
2021/04/30 02:34:45;;;;;;;15.27;13.67;;;;;;;;;;5115687;28;20213;-62
2021/04/30 02:37:10;;;;;;;21.20;16.00;;;;;;;;;;5115221;28;20592;-61
2021/04/30 02:39:36;;;;;;;18.50;15.20;;;;;;;;;;5115755;28;20529;-62
2021/04/30 02:42:01;;;;;;;14.53;13.20;;;;;;;;;;5114779;28;20545;-63
2021/04/30 02:44:27;;;;;;;14.30;12.90;;;;;;;;;;5116186;28;20231;-63
2021/04/30 02:46:52;;;;;;;14.90;13.43;;;;;;;;;;5117614;28;20230;-62
2021/04/30 02:49:25;;;;;;;13.83;12.47;;;;;;;;;;5119299;28;20543;-63
2021/04/30 02:51:50;;;;;;;14.90;12.90;;;;;;;;;;5118242;27;20572;-63
2021/04/30 02:54:16;;;;;;;14.70;13.30;;;;;;;;;;5118853;28;20576;-62
2021/04/30 02:56:41;;;;;;;16.87;15.20;;;;;;;;;;5118767;28;20697;-63
2021/04/30 02:59:06;;;;;;;14.60;13.10;;;;;;;;;;5118229;28;20317;-63
2021/04/30 03:01:31;;;;;;;15.60;14.10;;;;;;;;;;5118604;28;20230;-63
2021/04/30 03:03:57;;;;;;;18.70;17.00;;;;;;;;;;5118390;28;20604;-62
2021/04/30 03:06:23;;;;;;;15.83;14.23;;;;;;;;;;5119318;27;20222;-63
2021/04/30 03:08:52;;;;;;;16.30;14.70;;;;;;;;;;5118510;28;20225;-63
2021/04/30 03:11:18;;;;;;;16.07;14.47;;;;;;;;;;5119496;27;20458;-63
2021/04/30 03:13:44;;;;;;;17.00;15.20;;;;;;;;;;5119735;28;20893;-63
2021/04/30 03:16:09;;;;;;;17.73;16.03;;;;;;;;;;5118796;28;20426;-63
2021/04/30 03:18:35;;;;;;;19.57;17.70;;;;;;;;;;5119157;28;20215;-62
2021/04/30 03:21:00;;;;;;;17.63;16.03;;;;;;;;;;5119172;28;20277;-62
2021/04/30 03:23:25;;;;;;;19.70;17.70;;;;;;;;;;5119858;27;20243;-62
2021/04/30 03:25:50;;;;;;;20.93;18.73;;;;;;;;;;5118897;28;20299;-62
2021/04/30 03:28:16;;;;;;;21.57;17.50;;;;;;;;;;5118283;28;20242;-62
2021/04/30 03:30:41;;;;;;;20.07;17.97;;;;;;;;;;5119046;28;20220;-62
2021/04/30 03:33:06;;;;;;;17.33;15.53;;;;;;;;;;5118709;27;20219;-62
2021/04/30 03:35:31;;;;;;;17.07;15.47;;;;;;;;;;5117930;28;20224;-62
2021/04/30 03:37:57;;;;;;;14.30;12.90;;;;;;;;;;5118479;27;20316;-62
2021/04/30 03:40:22;;;;;;;16.87;13.53;;;;;;;;;;5119241;28;20345;-62
2021/04/30 03:42:47;;;;;;;16.97;14.80;;;;;;;;;;5118158;27;20678;-63
2021/04/30 03:45:13;;;;;;;17.73;15.90;;;;;;;;;;5105994;28;20656;-63
2021/04/30 03:47:38;;;;;;;19.03;17.00;;;;;;;;;;5112277;28;20224;-62
2021/04/30 03:50:04;;;;;;;20.60;18.50;;;;;;;;;;5116575;28;20810;-63
2021/04/30 03:52:29;;;;;;;23.63;20.50;;;;;;;;;;5104529;28;20308;-65
2021/04/30 03:54:55;;;;;;;22.77;19.50;;;;;;;;;;5107473;28;20238;-64
2021/04/30 03:57:20;;;;;;;22.97;19.97;;;;;;;;;;5102758;27;20646;-63
2021/04/30 03:59:45;;;;;;;21.50;19.40;;;;;;;;;;5117508;27;20214;-63
2021/04/30 04:02:10;;;;;;;20.60;18.60;;;;;;;;;;5114094;28;20784;-64
2021/04/30 04:04:36;;;;;;;18.83;16.93;;;;;;;;;;5116372;28;20226;-63
2021/04/30 04:07:01;;;;;;;18.33;16.43;;;;;;;;;;5102406;27;20671;-63
2021/04/30 04:09:27;;;;;;;16.90;15.40;;;;;;;;;;5104339;27;20234;-65
2021/04/30 04:11:52;;;;;;;16.13;14.40;;;;;;;;;;5109963;27;20227;-64
2021/04/30 04:14:17;;;;;;;19.17;17.13;;;;;;;;;;5108201;27;20720;-62
2021/04/30 04:16:42;;;;;;;18.60;16.63;;;;;;;;;;5102064;28;20231;-66
2021/04/30 04:19:09;;;;;;;18.60;16.70;;;;;;;;;;5104092;27;20311;-62
2021/04/30 04:21:34;;;;;;;19.17;17.17;;;;;;;;;;5110147;27;20218;-62
2021/04/30 04:23:59;;;;;;;17.87;15.97;;;;;;;;;;5107918;27;20950;-63
2021/04/30 04:26:25;;;;;;;20.33;16.70;;;;;;;;;;5110693;27;20300;-63
2021/04/30 04:28:50;;;;;;;20.13;16.53;;;;;;;;;;5104071;27;20223;-63
2021/04/30 04:31:15;;;;;;;19.63;17.70;;;;;;;;;;5108895;27;20638;-62
2021/04/30 04:33:40;;;;;;;18.60;16.50;;;;;;;;;;5107300;27;20232;-63
2021/04/30 04:36:06;;;;;;;22.20;18.00;;;;;;;;;;5109393;27;20249;-63
2021/04/30 04:38:31;;;;;;;20.07;18.07;;;;;;;;;;5099401;27;20231;-63
2021/04/30 04:40:56;;;;;;;21.03;18.60;;;;;;;;;;5113182;27;20219;-63
2021/04/30 04:43:22;;;;;;;20.33;18.23;;;;;;;;;;5104603;27;20257;-63
2021/04/30 04:45:47;;;;;;;23.93;19.77;;;;;;;;;;5113112;27;20576;-63
2021/04/30 04:48:12;;;;;;;22.10;18.50;;;;;;;;;;5115291;27;20229;-62
2021/04/30 04:50:38;;;;;;;18.90;17.00;;;;;;;;;;5102216;27;20294;-64
2021/04/30 04:53:03;;;;;;;20.07;18.17;;;;;;;;;;5110870;27;20214;-62
2021/04/30 04:55:28;;;;;;;20.43;18.03;;;;;;;;;;5113840;27;20226;-63
2021/04/30 04:57:53;;;;;;;18.50;16.67;;;;;;;;;;5104079;27;20307;-63
2021/04/30 05:00:19;;;;;;;20.30;16.80;;;;;;;;;;5101530;27;20232;-63
2021/04/30 05:02:45;;;;;;;20.47;18.47;;;;;;;;;;5107662;27;20223;-63
2021/04/30 05:05:10;;;;;;;18.17;16.13;;;;;;;;;;5108934;27;20565;-63
2021/04/30 05:07:35;;;;;;;17.10;15.40;;;;;;;;;;5102298;27;20226;-62
2021/04/30 05:10:02;;;;;;;19.60;16.80;;;;;;;;;;5101294;27;20231;-63
2021/04/30 05:12:27;;;;;;;18.73;16.80;;;;;;;;;;5108392;27;20219;-63
2021/04/30 05:14:53;;;;;;;17.70;15.90;;;;;;;;;;5107505;27;20521;-63
2021/04/30 05:17:18;;;;;;;18.50;16.20;;;;;;;;;;5101005;27;20219;-63
2021/04/30 05:19:43;;;;;;;17.87;14.20;;;;;;;;;;5114557;27;20646;-63
2021/04/30 05:22:11;;;;;;;17.40;15.70;;;;;;;;;;5108141;27;20306;-62
2021/04/30 05:24:37;;;;;;;16.00;14.43;;;;;;;;;;5108270;27;20237;-64
2021/04/30 05:27:07;;;;;;;16.80;15.13;;;;;;;;;;5100855;28;20463;-63
2021/04/30 05:29:33;;;;;;;15.80;14.07;;;;;;;;;;5101568;27;20498;-63
2021/04/30 05:31:59;;;;;;;15.90;14.20;;;;;;;;;;5106931;27;20454;-63
2021/04/30 05:34:24;;;;;;;15.27;13.80;;;;;;;;;;5108083;27;20734;-63
2021/04/30 05:36:49;;;;;;;14.97;13.47;;;;;;;;;;5102171;27;20284;-64
2021/04/30 05:39:14;;;;;;;14.50;13.20;;;;;;;;;;5100815;27;20233;-64
2021/04/30 05:41:40;;;;;;;15.63;14.07;;;;;;;;;;5107413;27;20303;-63
2021/04/30 05:44:05;;;;;;;14.20;13.00;;;;;;;;;;5107309;27;20276;-63
2021/04/30 05:46:30;;;;;;;19.17;14.23;;;;;;;;;;5114835;27;20585;-64
2021/04/30 05:48:56;;;;;;;15.03;13.47;;;;;;;;;;5115028;27;20306;-64
2021/04/30 05:51:21;;;;;;;14.33;12.90;;;;;;;;;;5100394;27;20223;-63
2021/04/30 05:53:46;;;;;;;14.40;12.50;;;;;;;;;;5114725;27;20266;-62
2021/04/30 05:56:12;;;;;;;14.80;13.30;;;;;;;;;;5100200;27;20315;-64
2021/04/30 05:58:38;;;;;;;13.47;12.07;;;;;;;;;;5102236;27;20325;-63
2021/04/30 06:01:03;;;;;;;14.93;13.37;;;;;;;;;;5108975;27;20437;-63
2021/04/30 06:03:28;;;;;;;13.80;12.40;;;;;;;;;;5105276;27;20211;-63
2021/04/30 06:05:53;;;;;;;12.47;11.37;;;;;;;;;;5101025;27;20571;-64
2021/04/30 06:08:19;;;;;;;16.50;12.17;;;;;;;;;;5102615;27;20228;-63
2021/04/30 06:10:44;;;;;;;12.10;10.90;;;;;;;;;;5107579;27;20254;-63
2021/04/30 06:13:09;;;;;;;11.63;10.53;;;;;;;;;;5105409;27;20215;-64
2021/04/30 06:15:35;;;;;;;11.70;10.50;;;;;;;;;;5100937;27;20235;-63
2021/04/30 06:18:00;;;;;;;11.17;10.07;;;;;;;;;;5108382;27;20207;-63
2021/04/30 06:20:26;;;;;;;12.43;11.20;;;;;;;;;;5118017;27;20223;-63
2021/04/30 06:22:51;;;;;;;11.10;9.40;;;;;;;;;;5107341;27;20272;-63
2021/04/30 06:25:17;;;;;;;15.10;9.73;;;;;;;;;;5110308;27;20215;-63
2021/04/30 06:27:42;;;;;;;10.50;9.50;;;;;;;;;;5109246;27;20226;-63
2021/04/30 06:30:08;;;;;;;11.33;10.27;;;;;;;;;;5103910;27;20552;-62
2021/04/30 06:32:33;;;;;;;10.60;9.70;;;;;;;;;;5107447;27;20226;-63
2021/04/30 06:34:58;;;;;;;9.03;8.13;;;;;;;;;;5111407;27;20614;-63
2021/04/30 06:37:26;;;;;;;9.40;8.40;;;;;;;;;;5108027;27;20218;-63
2021/04/30 06:39:53;;;;;;;6.80;6.20;;;;;;;;;;5104184;27;20223;-64
2021/04/30 06:42:18;;;;;;;7.97;7.20;;;;;;;;;;5106889;27;20927;-63
2021/04/30 06:44:43;;;;;;;6.87;6.23;;;;;;;;;;5109280;27;20436;-64
2021/04/30 06:47:08;;;;;;;6.50;5.90;;;;;;;;;;5116688;27;20371;-64
2021/04/30 06:49:34;;;;;;;6.17;5.53;;;;;;;;;;5103381;27;20215;-64
2021/04/30 06:51:59;;;;;;;6.70;6.20;;;;;;;;;;5112169;27;20211;-64
2021/04/30 06:54:24;;;;;;;6.77;6.17;;;;;;;;;;5117238;27;20298;-65
2021/04/30 06:56:50;;;;;;;6.17;5.57;;;;;;;;;;5106369;27;20232;-65
2021/04/30 06:59:15;;;;;;;6.40;5.77;;;;;;;;;;5110555;27;20620;-65
2021/04/30 07:01:40;;;;;;;6.57;5.97;;;;;;;;;;5108050;27;20229;-64
2021/04/30 07:04:07;;;;;;;6.07;5.57;;;;;;;;;;5102891;28;20219;-63
2021/04/30 07:06:33;;;;;;;6.27;5.57;;;;;;;;;;5106083;27;20244;-64
2021/04/30 07:08:58;;;;;;;8.37;4.93;;;;;;;;;;5110603;27;20456;-64
2021/04/30 07:11:23;;;;;;;5.40;4.90;;;;;;;;;;5107403;27;20294;-64
2021/04/30 07:13:48;;;;;;;6.00;5.40;;;;;;;;;;5103656;27;20245;-63
2021/04/30 07:16:14;;;;;;;5.77;5.20;;;;;;;;;;5106273;27;20306;-64
2021/04/30 07:18:39;;;;;;;6.53;5.83;;;;;;;;;;5113737;27;20695;-64
2021/04/30 07:21:05;;;;;;;6.53;5.90;;;;;;;;;;5117568;27;20298;-64
2021/04/30 07:23:33;;;;;;;6.20;5.60;;;;;;;;;;5103262;27;20702;-65
2021/04/30 07:25:58;;;;;;;10.60;8.20;;;;;;;;;;5106248;27;20287;-63
2021/04/30 07:28:24;;;;;;;12.30;9.17;;;;;;;;;;5109857;27;20523;-64
2021/04/30 07:30:49;;;;;;;7.00;5.27;;;;;;;;;;5106945;27;20215;-64
2021/04/30 07:33:14;;;;;;;7.53;6.70;;;;;;;;;;5102828;27;20215;-64
2021/04/30 07:35:40;;;;;;;6.10;5.50;;;;;;;;;;5105521;27;20589;-65
2021/04/30 07:38:06;;;;;;;6.87;5.90;;;;;;;;;;5110106;27;20676;-65
2021/04/30 07:40:32;;;;;;;7.33;6.63;;;;;;;;;;5106087;27;20213;-63
2021/04/30 07:42:58;;;;;;;7.10;5.37;;;;;;;;;;5103009;27;20436;-63
2021/04/30 07:45:23;;;;;;;9.60;6.03;;;;;;;;;;5105652;27;20208;-64
2021/04/30 07:47:48;;;;;;;8.13;6.83;;;;;;;;;;5113880;28;20215;-64
2021/04/30 07:50:13;;;;;;;8.90;5.60;;;;;;;;;;5105343;27;20601;-64
2021/04/30 07:52:40;;;;;;;7.90;6.07;;;;;;;;;;5113608;27;20236;-64
2021/04/30 07:55:05;;;;;;;6.80;6.20;;;;;;;;;;5116424;27;20562;-64
2021/04/30 07:57:30;;;;;;;6.97;6.27;;;;;;;;;;5101052;27;20463;-63
2021/04/30 07:59:56;;;;;;;5.87;5.37;;;;;;;;;;5105773;27;20216;-63
2021/04/30 08:02:21;;;;;;;6.13;5.53;;;;;;;;;;5109082;27;20251;-64
2021/04/30 08:04:47;;;;;;;6.07;5.57;;;;;;;;;;5105743;27;20253;-64
2021/04/30 08:07:13;;;;;;;5.60;4.90;;;;;;;;;;5102084;27;20221;-64
2021/04/30 08:09:39;;;;;;;6.93;6.27;;;;;;;;;;5115298;27;20294;-64
2021/04/30 08:12:04;;;;;;;6.30;4.70;;;;;;;;;;5102521;27;20458;-64
2021/04/30 08:14:30;;;;;;;6.87;5.77;;;;;;;;;;5107749;27;20720;-65
2021/04/30 08:16:55;;;;;;;5.90;5.17;;;;;;;;;;5108969;27;20590;-64
2021/04/30 08:19:21;;;;;;;7.03;6.43;;;;;;;;;;5112243;27;20474;-62
2021/04/30 08:21:46;;;;;;;8.73;6.40;;;;;;;;;;5115283;27;20635;-63
2021/04/30 08:24:11;;;;;;;5.73;5.17;;;;;;;;;;5102888;28;20232;-63
2021/04/30 08:26:37;;;;;;;6.60;5.90;;;;;;;;;;5101961;27;20253;-65
2021/04/30 08:29:02;;;;;;;11.33;8.30;;;;;;;;;;5108572;27;20258;-64
2021/04/30 08:31:28;;;;;;;5.30;4.80;;;;;;;;;;5108659;27;20778;-64
2021/04/30 08:33:53;;;;;;;6.73;6.03;;;;;;;;;;5102084;27;20298;-65
2021/04/30 08:36:21;;;;;;;9.90;5.20;;;;;;;;;;5114605;27;20254;-64
2021/04/30 08:38:46;;;;;;;5.07;4.50;;;;;;;;;;5101920;27;20223;-64
2021/04/30 08:41:11;;;;;;;4.67;4.23;;;;;;;;;;5101706;27;20739;-64
2021/04/30 08:43:37;;;;;;;4.60;4.10;;;;;;;;;;5107289;27;20240;-64
2021/04/30 08:46:06;;;;;;;5.90;4.77;;;;;;;;;;5097427;28;20704;-65
2021/04/30 08:48:33;;;;;;;5.43;4.50;;;;;;;;;;5114817;27;20674;-63
2021/04/30 08:50:59;;;;;;;5.37;3.60;;;;;;;;;;5101450;27;20437;-65
2021/04/30 08:53:25;;;;;;;4.10;3.70;;;;;;;;;;5114632;27;20483;-64
2021/04/30 08:55:52;;;;;;;4.23;3.70;;;;;;;;;;5111637;27;20460;-64
2021/04/30 08:58:26;;;;;;;4.37;3.97;;;;;;;;;;5104911;27;20223;-64
2021/04/30 09:00:53;;;;;;;5.07;3.73;;;;;;;;;;5101074;27;20467;-64
2021/04/30 09:03:19;;;;;;;4.40;4.00;;;;;;;;;;5102774;27;20462;-64
2021/04/30 09:05:46;;;;;;;5.33;4.37;;;;;;;;;;5108188;27;20953;-65
2021/04/30 09:08:11;;;;;;;4.53;4.07;;;;;;;;;;5106780;27;20253;-64
2021/04/30 09:10:40;;;;;;;4.30;3.90;;;;;;;;;;5100177;27;20457;-63
2021/04/30 09:13:13;;;;;;;6.00;4.50;;;;;;;;;;5102480;27;20279;-64
2021/04/30 09:15:40;;;;;;;6.30;4.23;;;;;;;;;;5107217;27;20496;-64
2021/04/30 09:18:16;;;;;;;4.90;4.50;;;;;;;;;;5106967;27;20747;-63
2021/04/30 09:20:41;;;;;;;6.20;4.77;;;;;;;;;;5101085;28;20513;-65
2021/04/30 09:23:31;;;;;;;5.50;4.57;;;;;;;;;;5113644;27;20461;-64
2021/04/30 09:25:57;;;;;;;5.10;4.60;;;;;;;;;;5104462;27;20231;-65
2021/04/30 09:28:22;;;;;;;7.23;6.60;;;;;;;;;;5098980;27;20475;-64
2021/04/30 09:30:48;;;;;;;4.37;3.97;;;;;;;;;;5103820;27;20230;-64
2021/04/30 09:33:15;;;;;;;5.73;5.23;;;;;;;;;;5106951;27;20528;-64
2021/04/30 09:35:51;;;;;;;8.20;5.20;;;;;;;;;;5103975;27;20238;-65
2021/04/30 09:38:22;;;;;;;5.23;4.83;;;;;;;;;;5100036;27;20464;-64
2021/04/30 09:40:51;;;;;;;5.10;4.60;;;;;;;;;;5101679;27;20472;-63
2021/04/30 09:43:17;;;;;;;4.20;3.80;;;;;;;;;;5106498;27;20477;-63
2021/04/30 09:45:45;;;;;;;5.50;4.63;;;;;;;;;;5107511;27;20457;-65
2021/04/30 09:48:12;;;;;;;4.97;4.33;;;;;;;;;;5113953;27;20686;-64
2021/04/30 09:50:40;;;;;;;5.90;4.50;;;;;;;;;;5100432;27;20500;-65
2021/04/30 09:53:11;;;;;;;4.90;4.40;;;;;;;;;;5113661;27;20950;-64
2021/04/30 09:55:43;;;;;;;5.43;3.70;;;;;;;;;;5112425;27;20835;-64
2021/04/30 09:58:14;;;;;;;5.10;3.83;;;;;;;;;;5102990;27;20460;-64
2021/04/30 10:00:39;;;;;;;7.70;4.33;;;;;;;;;;5100400;27;20839;-64
2021/04/30 10:03:15;;;;;;;4.07;3.70;;;;;;;;;;5103673;27;20461;-65
2021/04/30 10:06:03;;;;;;;4.10;3.70;;;;;;;;;;5107524;27;20571;-64
2021/04/30 10:08:32;;;;;;;4.30;3.90;;;;;;;;;;5107004;27;20452;-64
2021/04/30 10:10:58;;;;;;;4.13;3.73;;;;;;;;;;5101466;27;20799;-64
2021/04/30 10:13:23;;;;;;;5.33;4.60;;;;;;;;;;5099787;27;20443;-64
2021/04/30 10:15:49;;;;;;;6.40;4.17;;;;;;;;;;5106593;27;20242;-64
2021/04/30 10:18:17;;;;;;;4.30;3.90;;;;;;;;;;5107194;27;20222;-64
2021/04/30 10:20:42;;;;;;;7.63;5.00;;;;;;;;;;5112854;27;20562;-64
2021/04/30 10:23:14;;;;;;;4.97;4.00;;;;;;;;;;5099747;27;20467;-64
2021/04/30 10:25:39;;;;;;;5.27;3.87;;;;;;;;;;5105475;27;20308;-64
2021/04/30 10:28:05;;;;;;;6.20;4.93;;;;;;;;;;5106031;27;20501;-64
2021/04/30 10:30:37;;;;;;;5.93;4.60;;;;;;;;;;5099962;27;21417;-64
2021/04/30 10:33:45;;;;;;;5.60;4.43;;;;;;;;;;5100141;27;20457;-65
2021/04/30 10:36:19;;;;;;;4.47;4.07;;;;;;;;;;5040588;28;20788;-64
2021/04/30 10:38:50;;;;;;;4.13;3.83;;;;;;;;;;5097321;27;21007;-63
2021/04/30 10:41:26;;;;;;;4.93;4.23;;;;;;;;;;5106681;27;20461;-64
2021/04/30 10:44:13;;;;;;;4.70;3.73;;;;;;;;;;5104124;27;20805;-63
2021/04/30 10:46:40;;;;;;;4.03;3.67;;;;;;;;;;5101265;28;20949;-64
2021/04/30 10:49:07;;;;;;;4.77;4.30;;;;;;;;;;5112041;27;20485;-64
2021/04/30 10:51:33;;;;;;;4.27;3.83;;;;;;;;;;5101510;27;20464;-65
2021/04/30 10:54:27;;;;;;;4.27;3.93;;;;;;;;;;5099658;27;20529;-63
2021/04/30 10:56:59;;;;;;;3.23;3.03;;;;;;;;;;5100694;27;20509;-64
2021/04/30 10:59:41;;;;;;;4.13;3.20;;;;;;;;;;5106615;27;20595;-64
2021/04/30 11:02:26;;;;;;;4.20;3.90;;;;;;;;;;5106540;27;20483;-64
2021/04/30 11:05:03;;;;;;;21.83;4.60;;;;;;;;;;5105459;27;20890;-64
2021/04/30 11:07:49;;;;;;;5.60;3.40;;;;;;;;;;5103296;27;20458;-64
2021/04/30 11:10:20;;;;;;;4.60;4.20;;;;;;;;;;5102839;27;20468;-64
2021/04/30 11:12:57;;;;;;;4.10;3.20;;;;;;;;;;5108295;27;20518;-64
2021/04/30 11:15:25;;;;;;;4.60;3.20;;;;;;;;;;5110079;27;20471;-64
2021/04/30 11:17:57;;;;;;;4.83;3.23;;;;;;;;;;5106996;27;20487;-64
2021/04/30 11:20:28;;;;;;;13.30;12.10;;;;;;;;;;5116716;27;20464;-65
2021/04/30 11:23:15;;;;;;;30.80;28.00;;;;;;;;;;5104880;27;20469;-65
2021/04/30 11:25:58;;;;;;;15.87;14.47;;;;;;;;;;5104518;28;20444;-66
2021/04/30 11:28:29;;;;;;;33.30;29.90;;;;;;;;;;5112340;27;20454;-64
2021/04/30 11:31:07;;;;;;;8.20;7.40;;;;;;;;;;5108137;27;20923;-63
2021/04/30 11:33:35;;;;;;;10.63;9.63;;;;;;;;;;5102575;27;20455;-64
2021/04/30 11:36:02;;;;;;;12.20;11.10;;;;;;;;;;5103327;27;20965;-64
2021/04/30 11:38:38;;;;;;;10.90;5.70;;;;;;;;;;5102939;28;20557;-65
2021/04/30 11:41:04;;;;;;;6.27;5.30;;;;;;;;;;5115127;27;20460;-65
2021/04/30 11:43:30;;;;;;;7.00;6.30;;;;;;;;;;5104084;27;20480;-63
2021/04/30 11:45:55;;;;;;;7.20;5.67;;;;;;;;;;5102125;28;20886;-64
2021/04/30 11:48:30;;;;;;;5.93;5.33;;;;;;;;;;5115884;27;20260;-64
2021/04/30 11:51:03;;;;;;;6.83;6.13;;;;;;;;;;5102693;27;20243;-64
2021/04/30 11:53:29;;;;;;;6.07;5.23;;;;;;;;;;5116245;27;20460;-65
2021/04/30 11:55:56;;;;;;;8.73;6.60;;;;;;;;;;5112879;27;20524;-64
2021/04/30 11:58:22;;;;;;;6.73;6.00;;;;;;;;;;5106239;27;20471;-64
2021/04/30 12:00:51;;;;;;;8.77;7.87;;;;;;;;;;5102817;27;20447;-65
2021/04/30 12:03:17;;;;;;;6.80;6.10;;;;;;;;;;5106058;27;20268;-65
2021/04/30 12:05:43;;;;;;;7.23;6.57;;;;;;;;;;5109387;27;20424;-64
2021/04/30 12:08:09;;;;;;;7.20;6.40;;;;;;;;;;5106830;27;20675;-64
2021/04/30 12:10:36;;;;;;;8.70;5.97;;;;;;;;;;5102066;27;20472;-64
2021/04/30 12:13:01;;;;;;;7.10;6.50;;;;;;;;;;5108210;27;20243;-65
2021/04/30 12:15:42;;;;;;;7.07;6.37;;;;;;;;;;5115191;27;20553;-64
2021/04/30 12:18:08;;;;;;;6.00;5.50;;;;;;;;;;5102397;27;20280;-65
2021/04/30 12:20:35;;;;;;;6.80;6.20;;;;;;;;;;5108918;27;20474;-64
2021/04/30 12:23:13;;;;;;;6.40;5.80;;;;;;;;;;5107649;27;20245;-64
2021/04/30 12:25:45;;;;;;;7.93;6.43;;;;;;;;;;5101948;28;20464;-65
2021/04/30 12:28:25;;;;;;;6.40;5.90;;;;;;;;;;5113945;27;20529;-65
2021/04/30 12:30:52;;;;;;;7.33;6.40;;;;;;;;;;5104577;27;20939;-65
2021/04/30 12:33:38;;;;;;;7.10;6.30;;;;;;;;;;5101911;27;20458;-64
2021/04/30 12:36:06;;;;;;;6.80;6.20;;;;;;;;;;5103694;27;20484;-65
2021/04/30 12:38:32;;;;;;;6.70;6.10;;;;;;;;;;5108478;27;20455;-65
2021/04/30 12:41:05;;;;;;;5.60;4.73;;;;;;;;;;5107584;27;20496;-65
2021/04/30 12:43:30;;;;;;;8.93;5.97;;;;;;;;;;5101365;27;20575;-65
2021/04/30 12:45:56;;;;;;;5.83;5.33;;;;;;;;;;5113094;28;20490;-65
2021/04/30 12:48:26;;;;;;;7.57;6.80;;;;;;;;;;5115203;27;20230;-65
2021/04/30 12:50:51;;;;;;;6.40;5.80;;;;;;;;;;5101695;27;20662;-65
2021/04/30 12:53:16;;;;;;;7.93;5.93;;;;;;;;;;5115019;27;20478;-64
2021/04/30 12:55:42;;;;;;;8.20;6.80;;;;;;;;;;5112005;27;20315;-65
2021/04/30 12:58:18;;;;;;;8.10;5.90;;;;;;;;;;5103764;27;20664;-64
2021/04/30 13:01:01;;;;;;;6.10;5.40;;;;;;;;;;5101625;27;20223;-63
2021/04/30 13:03:45;;;;;;;6.20;5.60;;;;;;;;;;5102757;27;20470;-64
2021/04/30 13:06:12;;;;;;;7.00;6.30;;;;;;;;;;5102452;28;20454;-64
2021/04/30 13:08:40;;;;;;;6.73;6.13;;;;;;;;;;5113394;27;20563;-64
2021/04/30 13:11:07;;;;;;;6.43;5.77;;;;;;;;;;5103505;27;20483;-64
2021/04/30 13:13:33;;;;;;;6.23;5.63;;;;;;;;;;5100488;27;20456;-64
2021/04/30 13:16:03;;;;;;;5.70;5.20;;;;;;;;;;5105177;27;20480;-64
2021/04/30 13:18:33;;;;;;;5.97;4.63;;;;;;;;;;5107720;27;20229;-64
2021/04/30 13:20:59;;;;;;;6.20;4.83;;;;;;;;;;5104102;27;20472;-63
2021/04/30 13:23:32;;;;;;;5.10;4.67;;;;;;;;;;5098892;27;20465;-63
2021/04/30 13:25:58;;;;;;;5.53;4.87;;;;;;;;;;5104308;27;20703;-64
2021/04/30 13:28:27;;;;;;;9.00;6.60;;;;;;;;;;5100274;27;20469;-65
2021/04/30 13:30:54;;;;;;;7.67;7.07;;;;;;;;;;5104586;27;20312;-64
2021/04/30 13:33:40;;;;;;;7.57;6.87;;;;;;;;;;5107521;27;20462;-63
2021/04/30 13:36:07;;;;;;;7.90;7.20;;;;;;;;;;5107451;27;20480;-65
2021/04/30 13:38:35;;;;;;;7.10;6.50;;;;;;;;;;5101002;27;20490;-64
2021/04/30 13:41:24;;;;;;;8.27;7.47;;;;;;;;;;5100722;27;20475;-63
2021/04/30 13:43:50;;;;;;;9.30;8.37;;;;;;;;;;5103677;27;20463;-64
2021/04/30 13:46:19;;;;;;;8.13;7.40;;;;;;;;;;5092657;28;20466;-62
2021/04/30 13:48:46;;;;;;;9.93;8.23;;;;;;;;;;5111499;27;20232;-64
2021/04/30 13:51:12;;;;;;;8.00;7.20;;;;;;;;;;5094095;27;20538;-64
2021/04/30 13:53:38;;;;;;;7.67;6.83;;;;;;;;;;5112513;27;20462;-64
2021/04/30 13:56:04;;;;;;;7.43;6.73;;;;;;;;;;5110988;27;20461;-64
2021/04/30 13:58:31;;;;;;;8.63;7.83;;;;;;;;;;5111227;28;20246;-64
2021/04/30 14:00:56;;;;;;;15.23;8.03;;;;;;;;;;5111616;27;20533;-63
2021/04/30 14:03:21;;;;;;;7.10;6.47;;;;;;;;;;5114521;27;20540;-64
2021/04/30 14:05:46;;;;;;;5.80;5.33;;;;;;;;;;5114424;27;20215;-63
2021/04/30 14:08:12;;;;;;;5.97;5.37;;;;;;;;;;5113602;27;20567;-65
2021/04/30 14:10:38;;;;;;;5.90;4.97;;;;;;;;;;5114386;27;20229;-64
2021/04/30 14:13:03;;;;;;;5.20;4.70;;;;;;;;;;5113967;27;20248;-64
2021/04/30 14:15:28;;;;;;;7.87;5.97;;;;;;;;;;5114324;27;20566;-64
2021/04/30 14:17:54;;;;;;;4.83;4.33;;;;;;;;;;5114400;27;20563;-64
2021/04/30 14:20:20;;;;;;;4.97;4.47;;;;;;;;;;5113681;27;20218;-63
2021/04/30 14:22:45;;;;;;;5.30;4.80;;;;;;;;;;5114231;27;20276;-64
2021/04/30 14:25:11;;;;;;;5.10;4.60;;;;;;;;;;5113787;27;20226;-65
2021/04/30 14:27:36;;;;;;;5.23;4.73;;;;;;;;;;5114174;27;20239;-64
2021/04/30 14:30:05;;;;;;;5.43;5.03;;;;;;;;;;5113716;27;20274;-64
2021/04/30 14:32:30;;;;;;;6.47;5.97;;;;;;;;;;5114149;27;20251;-63